sensor_id;sensor_type;location;lat;lon;timestamp;pressure;altitude;pressure_sealevel;temperature;humidity
26112;BME280;13829;48.990;8.346;2023-04-22T00:01:56;99755.59;;;11.75;100.00
26112;BME280;13829;48.990;8.346;2023-04-22T00:04:23;99759.03;;;11.80;100.00
26112;BME280;13829;48.990;8.346;2023-04-22T00:06:50;99752.03;;;11.79;100.00
26112;BME280;13829;48.990;8.346;2023-04-22T00:09:18;99752.06;;;11.76;100.00
26112;BME280;13829;48.990;8.346;2023-04-22T00:11:45;99757.28;;;11.79;100.00
26112;BME280;13829;48.990;8.346;2023-04-22T00:14:12;99761.78;;;11.71;100.00
26112;BME280;13829;48.990;8.346;2023-04-22T00:16:39;99750.41;;;11.67;100.00
26112;BME280;13829;48.990;8.346;2023-04-22T00:19:06;99752.13;;;11.73;100.00
26112;BME280;13829;48.990;8.346;2023-04-22T00:21:33;99746.84;;;11.70;100.00
26112;BME280;13829;48.990;8.346;2023-04-22T00:24:00;99746.84;;;11.70;100.00
26112;BME280;13829;48.990;8.346;2023-04-22T00:26:29;99746.06;;;11.63;100.00
26112;BME280;13829;48.990;8.346;2023-04-22T00:28:56;99749.63;;;11.59;100.00
26112;BME280;13829;48.990;8.346;2023-04-22T00:31:23;99747.72;;;11.70;100.00
26112;BME280;13829;48.990;8.346;2023-04-22T00:33:50;99750.44;;;11.63;100.00
26112;BME280;13829;48.990;8.346;2023-04-22T00:36:17;99744.31;;;11.62;100.00
26112;BME280;13829;48.990;8.346;2023-04-22T00:38:48;99738.13;;;11.65;100.00
26112;BME280;13829;48.990;8.346;2023-04-22T00:41:16;99741.59;;;11.70;100.00
26112;BME280;13829;48.990;8.346;2023-04-22T00:43:45;99738.97;;;11.70;100.00
26112;BME280;13829;48.990;8.346;2023-04-22T00:46:13;99735.59;;;11.54;100.00
26112;BME280;13829;48.990;8.346;2023-04-22T00:48:41;99738.31;;;11.48;100.00
26112;BME280;13829;48.990;8.346;2023-04-22T00:51:08;99737.47;;;11.42;100.00
26112;BME280;13829;48.990;8.346;2023-04-22T00:53:35;99749.78;;;11.40;100.00
26112;BME280;13829;48.990;8.346;2023-04-22T00:56:03;99755.06;;;11.37;100.00
26112;BME280;13829;48.990;8.346;2023-04-22T00:58:30;99756.88;;;11.31;100.00
26112;BME280;13829;48.990;8.346;2023-04-22T01:00:58;99756.88;;;11.34;100.00
26112;BME280;13829;48.990;8.346;2023-04-22T01:03:27;99753.31;;;11.35;100.00
26112;BME280;13829;48.990;8.346;2023-04-22T01:05:55;99763.97;;;11.24;100.00
26112;BME280;13829;48.990;8.346;2023-04-22T01:08:27;99756.91;;;11.24;100.00
26112;BME280;13829;48.990;8.346;2023-04-22T01:10:55;99755.22;;;11.20;100.00
26112;BME280;13829;48.990;8.346;2023-04-22T01:13:22;99764.91;;;11.12;100.00
26112;BME280;13829;48.990;8.346;2023-04-22T01:15:50;99760.50;;;11.14;100.00
26112;BME280;13829;48.990;8.346;2023-04-22T01:18:20;99760.50;;;11.17;100.00
26112;BME280;13829;48.990;8.346;2023-04-22T01:20:47;99758.75;;;11.13;100.00
26112;BME280;13829;48.990;8.346;2023-04-22T01:23:18;99763.19;;;11.11;100.00
26112;BME280;13829;48.990;8.346;2023-04-22T01:25:47;99771.06;;;11.13;100.00
26112;BME280;13829;48.990;8.346;2023-04-22T01:28:16;99759.72;;;11.06;100.00
26112;BME280;13829;48.990;8.346;2023-04-22T01:30:43;99763.19;;;11.08;100.00
26112;BME280;13829;48.990;8.346;2023-04-22T01:33:11;99771.91;;;11.13;100.00
26112;BME280;13829;48.990;8.346;2023-04-22T01:35:38;99765.88;;;11.03;100.00
26112;BME280;13829;48.990;8.346;2023-04-22T01:38:08;99770.25;;;11.03;100.00
26112;BME280;13829;48.990;8.346;2023-04-22T01:40:38;99775.53;;;11.00;100.00
26112;BME280;13829;48.990;8.346;2023-04-22T01:43:06;99781.66;;;11.03;100.00
26112;BME280;13829;48.990;8.346;2023-04-22T01:45:33;99779.09;;;10.92;100.00
26112;BME280;13829;48.990;8.346;2023-04-22T01:48:00;99773.88;;;10.89;100.00
26112;BME280;13829;48.990;8.346;2023-04-22T01:50:27;99771.25;;;10.86;100.00
26112;BME280;13829;48.990;8.346;2023-04-22T01:52:54;99779.13;;;10.86;100.00
26112;BME280;13829;48.990;8.346;2023-04-22T01:55:21;99779.06;;;10.99;100.00
26112;BME280;13829;48.990;8.346;2023-04-22T01:57:50;99771.25;;;10.86;100.00
26112;BME280;13829;48.990;8.346;2023-04-22T02:00:17;99769.53;;;10.79;100.00
26112;BME280;13829;48.990;8.346;2023-04-22T02:02:44;99777.47;;;10.73;100.00
26112;BME280;13829;48.990;8.346;2023-04-22T02:05:11;99777.47;;;10.73;100.00
26112;BME280;13829;48.990;8.346;2023-04-22T02:07:38;99774.84;;;10.68;100.00
26112;BME280;13829;48.990;8.346;2023-04-22T02:10:06;99777.50;;;10.64;100.00
26112;BME280;13829;48.990;8.346;2023-04-22T02:12:34;99769.66;;;10.60;100.00
26112;BME280;13829;48.990;8.346;2023-04-22T02:15:02;99768.81;;;10.55;100.00
26112;BME280;13829;48.990;8.346;2023-04-22T02:17:29;99767.00;;;10.57;100.00
26112;BME280;13829;48.990;8.346;2023-04-22T02:19:57;99775.81;;;10.56;100.00
26112;BME280;13829;48.990;8.346;2023-04-22T02:22:24;99766.19;;;10.51;100.00
26112;BME280;13829;48.990;8.346;2023-04-22T02:24:52;99770.56;;;10.53;100.00
26112;BME280;13829;48.990;8.346;2023-04-22T02:27:19;99775.84;;;10.47;100.00
26112;BME280;13829;48.990;8.346;2023-04-22T02:29:45;99779.38;;;10.43;100.00
26112;BME280;13829;48.990;8.346;2023-04-22T02:32:14;99779.34;;;10.46;100.00
26112;BME280;13829;48.990;8.346;2023-04-22T02:34:42;99782.00;;;10.43;100.00
26112;BME280;13829;48.990;8.346;2023-04-22T02:37:09;99786.41;;;10.38;100.00
26112;BME280;13829;48.990;8.346;2023-04-22T02:39:36;99781.09;;;10.35;100.00
26112;BME280;13829;48.990;8.346;2023-04-22T02:42:02;99775.88;;;10.44;100.00
26112;BME280;13829;48.990;8.346;2023-04-22T02:44:29;99784.63;;;10.34;100.00
26112;BME280;13829;48.990;8.346;2023-04-22T02:46:56;99784.66;;;10.27;100.00
26112;BME280;13829;48.990;8.346;2023-04-22T02:49:24;99792.53;;;10.26;100.00
26112;BME280;13829;48.990;8.346;2023-04-22T02:51:51;99792.56;;;10.20;100.00
26112;BME280;13829;48.990;8.346;2023-04-22T02:54:18;99796.94;;;10.13;100.00
26112;BME280;13829;48.990;8.346;2023-04-22T02:56:45;99794.34;;;10.15;100.00
26112;BME280;13829;48.990;8.346;2023-04-22T02:59:12;99792.59;;;10.07;100.00
26112;BME280;13829;48.990;8.346;2023-04-22T03:01:39;99797.88;;;10.03;100.00
26112;BME280;13829;48.990;8.346;2023-04-22T03:04:06;99793.50;;;10.05;100.00
26112;BME280;13829;48.990;8.346;2023-04-22T03:06:34;99790.00;;;9.90;100.00
26112;BME280;13829;48.990;8.346;2023-04-22T03:09:01;99789.16;;;9.84;100.00
26112;BME280;13829;48.990;8.346;2023-04-22T03:11:28;99797.03;;;9.82;100.00
26112;BME280;13829;48.990;8.346;2023-04-22T03:13:55;99787.38;;;9.84;100.00
26112;BME280;13829;48.990;8.346;2023-04-22T03:16:23;99779.53;;;9.75;100.00
26112;BME280;13829;48.990;8.346;2023-04-22T03:18:50;99789.19;;;9.73;100.00
26112;BME280;13829;48.990;8.346;2023-04-22T03:21:17;99796.19;;;9.60;100.00
26112;BME280;13829;48.990;8.346;2023-04-22T03:23:45;99794.44;;;9.50;100.00
26112;BME280;13829;48.990;8.346;2023-04-22T03:26:12;99801.44;;;9.46;100.00
26112;BME280;13829;48.990;8.346;2023-04-22T03:28:39;99803.19;;;9.39;100.00
26112;BME280;13829;48.990;8.346;2023-04-22T03:31:06;99802.34;;;9.33;100.00
26112;BME280;13829;48.990;8.346;2023-04-22T03:33:33;99801.44;;;9.30;100.00
26112;BME280;13829;48.990;8.346;2023-04-22T03:36:00;99804.94;;;9.22;100.00
26112;BME280;13829;48.990;8.346;2023-04-22T03:38:27;99802.31;;;9.23;100.00
26112;BME280;13829;48.990;8.346;2023-04-22T03:40:55;99804.06;;;9.30;100.00
26112;BME280;13829;48.990;8.346;2023-04-22T03:43:22;99800.59;;;9.22;100.00
26112;BME280;13829;48.990;8.346;2023-04-22T03:45:50;99798.84;;;9.34;100.00
26112;BME280;13829;48.990;8.346;2023-04-22T03:48:17;99793.56;;;9.40;100.00
26112;BME280;13829;48.990;8.346;2023-04-22T03:50:44;99787.47;;;9.36;100.00
26112;BME280;13829;48.990;8.346;2023-04-22T03:53:11;99790.09;;;9.30;100.00
26112;BME280;13829;48.990;8.346;2023-04-22T03:55:38;99781.34;;;9.33;100.00
26112;BME280;13829;48.990;8.346;2023-04-22T03:58:07;99783.06;;;9.24;100.00
26112;BME280;13829;48.990;8.346;2023-04-22T04:00:33;99790.97;;;9.34;100.00
26112;BME280;13829;48.990;8.346;2023-04-22T04:03:00;99781.34;;;9.33;100.00
26112;BME280;13829;48.990;8.346;2023-04-22T04:05:27;99782.22;;;9.28;100.00
26112;BME280;13829;48.990;8.346;2023-04-22T04:07:54;99782.22;;;9.32;100.00
26112;BME280;13829;48.990;8.346;2023-04-22T04:10:21;99780.47;;;9.21;100.00
26112;BME280;13829;48.990;8.346;2023-04-22T04:12:48;99772.59;;;9.34;100.00
26112;BME280;13829;48.990;8.346;2023-04-22T04:15:16;99775.22;;;9.29;100.00
26112;BME280;13829;48.990;8.346;2023-04-22T04:17:46;99780.47;;;9.21;100.00
26112;BME280;13829;48.990;8.346;2023-04-22T04:20:13;99784.84;;;9.32;100.00
26112;BME280;13829;48.990;8.346;2023-04-22T04:22:41;99789.19;;;9.26;100.00
26112;BME280;13829;48.990;8.346;2023-04-22T04:25:08;99797.06;;;9.36;100.00
26112;BME280;13829;48.990;8.346;2023-04-22T04:27:36;99788.31;;;9.37;100.00
26112;BME280;13829;48.990;8.346;2023-04-22T04:30:07;99789.19;;;9.28;100.00
26112;BME280;13829;48.990;8.346;2023-04-22T04:32:36;99785.72;;;9.34;100.00
26112;BME280;13829;48.990;8.346;2023-04-22T04:35:04;99778.72;;;9.34;100.00
26112;BME280;13829;48.990;8.346;2023-04-22T04:37:31;99769.97;;;9.23;100.00
26112;BME280;13829;48.990;8.346;2023-04-22T04:39:58;99777.81;;;9.18;100.00
26112;BME280;13829;48.990;8.346;2023-04-22T04:42:26;99773.44;;;9.16;100.00
26112;BME280;13829;48.990;8.346;2023-04-22T04:44:55;99768.19;;;9.09;100.00
26112;BME280;13829;48.990;8.346;2023-04-22T04:47:23;99784.84;;;9.16;100.00
26112;BME280;13829;48.990;8.346;2023-04-22T04:49:51;99778.69;;;9.16;100.00
26112;BME280;13829;48.990;8.346;2023-04-22T04:52:19;99777.84;;;9.27;100.00
26112;BME280;13829;48.990;8.346;2023-04-22T04:54:45;99785.69;;;9.24;100.00
26112;BME280;13829;48.990;8.346;2023-04-22T04:57:12;99786.56;;;9.23;100.00
26112;BME280;13829;48.990;8.346;2023-04-22T04:59:39;99799.69;;;9.23;100.00
26112;BME280;13829;48.990;8.346;2023-04-22T05:02:06;99795.31;;;9.19;100.00
26112;BME280;13829;48.990;8.346;2023-04-22T05:04:33;99794.47;;;9.33;100.00
26112;BME280;13829;48.990;8.346;2023-04-22T05:07:01;99785.72;;;9.35;100.00
26112;BME280;13829;48.990;8.346;2023-04-22T05:09:28;99788.31;;;9.58;100.00
26112;BME280;13829;48.990;8.346;2023-04-22T05:12:01;99791.84;;;9.45;100.00
26112;BME280;13829;48.990;8.346;2023-04-22T05:14:29;99795.31;;;9.39;100.00
26112;BME280;13829;48.990;8.346;2023-04-22T05:16:56;99797.97;;;9.42;100.00
26112;BME280;13829;48.990;8.346;2023-04-22T05:19:23;99798.84;;;9.35;100.00
26112;BME280;13829;48.990;8.346;2023-04-22T05:21:50;99802.31;;;9.36;100.00
26112;BME280;13829;48.990;8.346;2023-04-22T05:24:18;99797.94;;;9.25;100.00
26112;BME280;13829;48.990;8.346;2023-04-22T05:26:46;99793.56;;;9.18;100.00
26112;BME280;13829;48.990;8.346;2023-04-22T05:29:13;99793.53;;;9.03;100.00
26112;BME280;13829;48.990;8.346;2023-04-22T05:31:40;99804.94;;;9.25;100.00
26112;BME280;13829;48.990;8.346;2023-04-22T05:34:07;99797.94;;;9.39;100.00
26112;BME280;13829;48.990;8.346;2023-04-22T05:36:34;99797.06;;;9.57;100.00
26112;BME280;13829;48.990;8.346;2023-04-22T05:39:01;99820.69;;;9.77;100.00
26112;BME280;13829;48.990;8.346;2023-04-22T05:41:29;99818.03;;;9.85;100.00
26112;BME280;13829;48.990;8.346;2023-04-22T05:43:56;99812.78;;;9.94;100.00
26112;BME280;13829;48.990;8.346;2023-04-22T05:46:23;99819.75;;;10.08;100.00
26112;BME280;13829;48.990;8.346;2023-04-22T05:48:50;99818.81;;;10.34;100.00
26112;BME280;13829;48.990;8.346;2023-04-22T05:51:17;99820.47;;;10.64;100.00
26112;BME280;13829;48.990;8.346;2023-04-22T05:53:44;99824.72;;;10.88;100.00
26112;BME280;13829;48.990;8.346;2023-04-22T05:56:11;99827.22;;;11.15;100.00
26112;BME280;13829;48.990;8.346;2023-04-22T05:58:39;99827.09;;;11.29;100.00
26112;BME280;13829;48.990;8.346;2023-04-22T06:01:06;99831.38;;;11.45;100.00
26112;BME280;13829;48.990;8.346;2023-04-22T06:03:34;99821.69;;;11.50;100.00
26112;BME280;13829;48.990;8.346;2023-04-22T06:06:01;99815.34;;;11.70;100.00
26112;BME280;13829;48.990;8.346;2023-04-22T06:08:29;99820.53;;;11.81;100.00
26112;BME280;13829;48.990;8.346;2023-04-22T06:10:56;99832.66;;;11.99;100.00
26112;BME280;13829;48.990;8.346;2023-04-22T06:13:26;99821.94;;;12.17;100.00
26112;BME280;13829;48.990;8.346;2023-04-22T06:15:55;99819.03;;;12.40;100.00
26112;BME280;13829;48.990;8.346;2023-04-22T06:18:22;99819.72;;;12.58;100.00
26112;BME280;13829;48.990;8.346;2023-04-22T06:20:50;99819.34;;;12.84;100.00
26112;BME280;13829;48.990;8.346;2023-04-22T06:23:17;99816.41;;;13.04;100.00
26112;BME280;13829;48.990;8.346;2023-04-22T06:25:44;99824.03;;;13.25;100.00
26112;BME280;13829;48.990;8.346;2023-04-22T06:28:11;99816.00;;;13.34;100.00
26112;BME280;13829;48.990;8.346;2023-04-22T06:30:38;99813.25;;;13.42;100.00
26112;BME280;13829;48.990;8.346;2023-04-22T06:33:07;99802.38;;;13.60;100.00
26112;BME280;13829;48.990;8.346;2023-04-22T06:35:34;99807.41;;;13.74;100.00
26112;BME280;13829;48.990;8.346;2023-04-22T06:38:01;99807.06;;;13.94;100.00
26112;BME280;13829;48.990;8.346;2023-04-22T06:40:28;99806.34;;;14.33;100.00
26112;BME280;13829;48.990;8.346;2023-04-22T06:42:55;99802.59;;;14.43;100.00
26112;BME280;13829;48.990;8.346;2023-04-22T06:45:21;99813.88;;;14.53;100.00
26112;BME280;13829;48.990;8.346;2023-04-22T06:47:50;99810.41;;;14.92;99.94
26112;BME280;13829;48.990;8.346;2023-04-22T06:50:19;99803.47;;;15.96;95.69
26112;BME280;13829;48.990;8.346;2023-04-22T06:52:46;99801.94;;;17.11;81.58
26112;BME280;13829;48.990;8.346;2023-04-22T06:55:13;99800.41;;;17.85;77.61
26112;BME280;13829;48.990;8.346;2023-04-22T06:57:40;99802.00;;;19.11;69.47
26112;BME280;13829;48.990;8.346;2023-04-22T07:00:08;99797.25;;;19.84;63.00
26112;BME280;13829;48.990;8.346;2023-04-22T07:02:35;99803.72;;;20.39;61.59
26112;BME280;13829;48.990;8.346;2023-04-22T07:05:02;99799.94;;;21.57;58.21
26112;BME280;13829;48.990;8.346;2023-04-22T07:07:30;99789.91;;;23.28;52.58
26112;BME280;13829;48.990;8.346;2023-04-22T07:09:57;99788.06;;;24.20;51.28
26112;BME280;13829;48.990;8.346;2023-04-22T07:12:24;99784.56;;;25.05;44.45
26112;BME280;13829;48.990;8.346;2023-04-22T07:14:51;99785.47;;;25.86;42.78
26112;BME280;13829;48.990;8.346;2023-04-22T07:17:18;99789.41;;;26.20;40.94
26112;BME280;13829;48.990;8.346;2023-04-22T07:19:47;99793.06;;;26.45;40.98
26112;BME280;13829;48.990;8.346;2023-04-22T07:22:13;99804.69;;;26.59;39.97
26112;BME280;13829;48.990;8.346;2023-04-22T07:24:42;99800.72;;;26.51;42.07
26112;BME280;13829;48.990;8.346;2023-04-22T07:27:09;99803.16;;;26.80;39.83
26112;BME280;13829;48.990;8.346;2023-04-22T07:29:36;99796.91;;;27.17;39.66
26112;BME280;13829;48.990;8.346;2023-04-22T07:32:03;99795.84;;;25.92;43.34
26112;BME280;13829;48.990;8.346;2023-04-22T07:34:31;99789.84;;;26.40;40.83
26112;BME280;13829;48.990;8.346;2023-04-22T07:36:58;99794.69;;;26.98;39.54
26112;BME280;13829;48.990;8.346;2023-04-22T07:39:25;99793.91;;;26.84;37.24
26112;BME280;13829;48.990;8.346;2023-04-22T07:41:53;99798.81;;;25.62;40.72
26112;BME280;13829;48.990;8.346;2023-04-22T07:44:22;99796.91;;;25.22;43.15
26112;BME280;13829;48.990;8.346;2023-04-22T07:46:49;99806.41;;;25.28;42.75
26112;BME280;13829;48.990;8.346;2023-04-22T07:49:16;99795.06;;;25.37;43.22
26112;BME280;13829;48.990;8.346;2023-04-22T07:51:44;99791.84;;;25.98;40.52
26112;BME280;13829;48.990;8.346;2023-04-22T07:54:11;99784.53;;;25.87;40.07
26112;BME280;13829;48.990;8.346;2023-04-22T07:56:38;99782.19;;;26.34;38.73
26112;BME280;13829;48.990;8.346;2023-04-22T07:59:06;99780.94;;;26.64;38.84
26112;BME280;13829;48.990;8.346;2023-04-22T08:01:33;99776.44;;;26.38;39.36
26112;BME280;13829;48.990;8.346;2023-04-22T08:04:00;99773.25;;;26.08;39.56
26112;BME280;13829;48.990;8.346;2023-04-22T08:06:27;99773.84;;;25.98;37.04
26112;BME280;13829;48.990;8.346;2023-04-22T08:08:54;99772.41;;;25.67;38.75
26112;BME280;13829;48.990;8.346;2023-04-22T08:11:21;99778.78;;;25.11;41.61
26112;BME280;13829;48.990;8.346;2023-04-22T08:13:48;99775.22;;;24.25;41.98
26112;BME280;13829;48.990;8.346;2023-04-22T08:16:17;99761.97;;;24.37;42.71
26112;BME280;13829;48.990;8.346;2023-04-22T08:18:44;99761.03;;;24.23;43.47
26112;BME280;13829;48.990;8.346;2023-04-22T08:21:11;99767.50;;;23.90;41.01
26112;BME280;13829;48.990;8.346;2023-04-22T08:23:39;99765.06;;;23.71;42.08
26112;BME280;13829;48.990;8.346;2023-04-22T08:26:06;99768.25;;;23.48;42.65
26112;BME280;13829;48.990;8.346;2023-04-22T08:28:33;99766.88;;;23.24;46.92
26112;BME280;13829;48.990;8.346;2023-04-22T08:31:00;99768.25;;;23.32;44.52
26112;BME280;13829;48.990;8.346;2023-04-22T08:33:28;99767.28;;;23.18;45.83
26112;BME280;13829;48.990;8.346;2023-04-22T08:35:55;99771.75;;;23.02;48.69
26112;BME280;13829;48.990;8.346;2023-04-22T08:38:22;99781.75;;;22.50;49.54
26112;BME280;13829;48.990;8.346;2023-04-22T08:40:50;99776.75;;;22.09;50.52
26112;BME280;13829;48.990;8.346;2023-04-22T08:43:18;99778.59;;;21.91;51.31
26112;BME280;13829;48.990;8.346;2023-04-22T08:45:46;99765.91;;;22.12;52.57
26112;BME280;13829;48.990;8.346;2023-04-22T08:48:13;99770.56;;;22.24;51.32
26112;BME280;13829;48.990;8.346;2023-04-22T08:50:42;99760.13;;;22.37;51.46
26112;BME280;13829;48.990;8.346;2023-04-22T08:53:10;99768.78;;;22.42;52.31
26112;BME280;13829;48.990;8.346;2023-04-22T08:55:37;99772.16;;;22.28;49.18
26112;BME280;13829;48.990;8.346;2023-04-22T08:58:06;99770.34;;;21.95;50.07
26112;BME280;13829;48.990;8.346;2023-04-22T09:00:33;99767.50;;;21.81;51.91
26112;BME280;13829;48.990;8.346;2023-04-22T09:03:04;99760.59;;;22.10;51.47
26112;BME280;13829;48.990;8.346;2023-04-22T09:05:32;99761.88;;;22.21;53.21
26112;BME280;13829;48.990;8.346;2023-04-22T09:08:03;99757.19;;;22.24;51.76
26112;BME280;13829;48.990;8.346;2023-04-22T09:10:35;99750.44;;;22.51;49.69
26112;BME280;13829;48.990;8.346;2023-04-22T09:13:04;99745.69;;;22.56;51.15
26112;BME280;13829;48.990;8.346;2023-04-22T09:15:32;99738.91;;;22.32;47.96
26112;BME280;13829;48.990;8.346;2023-04-22T09:18:00;99734.38;;;22.17;50.62
26112;BME280;13829;48.990;8.346;2023-04-22T09:20:29;99732.53;;;22.02;50.15
26112;BME280;13829;48.990;8.346;2023-04-22T09:23:01;99728.03;;;22.02;51.45
26112;BME280;13829;48.990;8.346;2023-04-22T09:25:33;99735.13;;;22.03;51.02
26112;BME280;13829;48.990;8.346;2023-04-22T09:28:00;99728.13;;;22.01;50.20
26112;BME280;13829;48.990;8.346;2023-04-22T09:30:30;99725.91;;;21.91;49.61
26112;BME280;13829;48.990;8.346;2023-04-22T09:32:59;99731.44;;;21.88;48.82
26112;BME280;13829;48.990;8.346;2023-04-22T09:35:29;99721.00;;;21.66;52.07
26112;BME280;13829;48.990;8.346;2023-04-22T09:37:58;99720.91;;;21.50;51.30
26112;BME280;13829;48.990;8.346;2023-04-22T09:40:27;99725.13;;;21.37;50.45
26112;BME280;13829;48.990;8.346;2023-04-22T09:42:59;99720.97;;;21.13;50.26
26112;BME280;13829;48.990;8.346;2023-04-22T09:45:29;99717.44;;;21.13;50.78
26112;BME280;13829;48.990;8.346;2023-04-22T09:48:00;99711.63;;;21.22;52.80
26112;BME280;13829;48.990;8.346;2023-04-22T09:50:28;99711.31;;;21.28;52.26
26112;BME280;13829;48.990;8.346;2023-04-22T09:52:58;99706.31;;;21.38;55.20
26112;BME280;13829;48.990;8.346;2023-04-22T09:55:28;99714.63;;;21.51;56.91
26112;BME280;13829;48.990;8.346;2023-04-22T09:57:57;99721.84;;;21.49;53.30
26112;BME280;13829;48.990;8.346;2023-04-22T10:00:30;99728.69;;;21.37;53.26
26112;BME280;13829;48.990;8.346;2023-04-22T10:02:58;99723.66;;;21.48;55.53
26112;BME280;13829;48.990;8.346;2023-04-22T10:05:25;99726.16;;;21.34;51.89
26112;BME280;13829;48.990;8.346;2023-04-22T10:07:54;99738.00;;;21.11;54.19
26112;BME280;13829;48.990;8.346;2023-04-22T10:10:22;99733.78;;;21.07;55.46
26112;BME280;13829;48.990;8.346;2023-04-22T10:12:51;99729.19;;;21.09;55.05
26112;BME280;13829;48.990;8.346;2023-04-22T10:15:20;99730.91;;;20.92;52.68
26112;BME280;13829;48.990;8.346;2023-04-22T10:17:49;99729.91;;;20.76;56.67
26112;BME280;13829;48.990;8.346;2023-04-22T10:20:20;99725.13;;;20.82;59.79
26112;BME280;13829;48.990;8.346;2023-04-22T10:22:51;99721.94;;;20.93;57.65
26112;BME280;13829;48.990;8.346;2023-04-22T10:25:21;99717.91;;;20.84;57.65
26112;BME280;13829;48.990;8.346;2023-04-22T10:27:53;99718.25;;;20.96;60.70
26112;BME280;13829;48.990;8.346;2023-04-22T10:30:28;99713.31;;;21.06;57.65
26112;BME280;13829;48.990;8.346;2023-04-22T10:33:34;99706.56;;;21.16;53.80
26112;BME280;13829;48.990;8.346;2023-04-22T10:36:10;99710.81;;;21.38;55.92
26112;BME280;13829;48.990;8.346;2023-04-22T10:39:14;99709.09;;;21.37;51.94
26112;BME280;13829;48.990;8.346;2023-04-22T10:41:49;99710.50;;;21.44;51.95
26112;BME280;13829;48.990;8.346;2023-04-22T10:44:18;99701.06;;;21.37;51.91
26112;BME280;13829;48.990;8.346;2023-04-22T10:47:02;99704.25;;;21.62;55.47
26112;BME280;13829;48.990;8.346;2023-04-22T10:49:29;99701.72;;;21.59;53.71
26112;BME280;13829;48.990;8.346;2023-04-22T10:51:59;99705.50;;;21.73;50.51
26112;BME280;13829;48.990;8.346;2023-04-22T10:54:58;99693.16;;;21.70;49.03
26112;BME280;13829;48.990;8.346;2023-04-22T10:57:36;99693.59;;;21.78;49.52
26112;BME280;13829;48.990;8.346;2023-04-22T11:00:29;99694.16;;;21.85;49.92
26112;BME280;13829;48.990;8.346;2023-04-22T11:03:14;99697.88;;;21.98;52.36
26112;BME280;13829;48.990;8.346;2023-04-22T11:05:42;99694.25;;;21.99;49.91
26112;BME280;13829;48.990;8.346;2023-04-22T11:08:20;99693.75;;;22.09;47.47
26112;BME280;13829;48.990;8.346;2023-04-22T11:10:50;99692.09;;;22.06;45.59
26112;BME280;13829;48.990;8.346;2023-04-22T11:13:20;99699.28;;;22.06;46.97
26112;BME280;13829;48.990;8.346;2023-04-22T11:15:52;99700.69;;;22.13;46.04
26112;BME280;13829;48.990;8.346;2023-04-22T11:18:23;99697.03;;;22.14;45.53
26112;BME280;13829;48.990;8.346;2023-04-22T11:20:52;99700.59;;;22.14;47.77
26112;BME280;13829;48.990;8.346;2023-04-22T11:23:23;99693.19;;;21.86;45.00
26112;BME280;13829;48.990;8.346;2023-04-22T11:25:55;99696.03;;;21.83;45.61
26112;BME280;13829;48.990;8.346;2023-04-22T11:28:23;99696.88;;;21.83;46.38
26112;BME280;13829;48.990;8.346;2023-04-22T11:30:52;99693.88;;;21.90;46.20
26112;BME280;13829;48.990;8.346;2023-04-22T11:33:20;99691.72;;;21.96;47.02
26112;BME280;13829;48.990;8.346;2023-04-22T11:35:49;99700.22;;;22.05;45.51
26112;BME280;13829;48.990;8.346;2023-04-22T11:38:16;99710.31;;;21.99;46.28
26112;BME280;13829;48.990;8.346;2023-04-22T11:40:44;99716.53;;;22.00;45.36
26112;BME280;13829;48.990;8.346;2023-04-22T11:43:11;99709.31;;;21.85;45.95
26112;BME280;13829;48.990;8.346;2023-04-22T11:45:38;99713.22;;;21.79;45.94
26112;BME280;13829;48.990;8.346;2023-04-22T11:48:08;99716.59;;;21.65;45.87
26112;BME280;13829;48.990;8.346;2023-04-22T11:50:39;99726.81;;;21.57;45.01
26112;BME280;13829;48.990;8.346;2023-04-22T11:53:14;99728.31;;;21.45;45.45
26112;BME280;13829;48.990;8.346;2023-04-22T11:55:43;99723.88;;;21.44;45.20
26112;BME280;13829;48.990;8.346;2023-04-22T11:58:13;99721.88;;;21.66;45.83
26112;BME280;13829;48.990;8.346;2023-04-22T12:00:42;99715.81;;;21.96;45.50
26112;BME280;13829;48.990;8.346;2023-04-22T12:03:13;99714.69;;;22.18;43.85
26112;BME280;13829;48.990;8.346;2023-04-22T12:05:44;99715.09;;;22.44;41.61
26112;BME280;13829;48.990;8.346;2023-04-22T12:08:14;99716.22;;;22.56;41.55
26112;BME280;13829;48.990;8.346;2023-04-22T12:10:44;99701.88;;;22.73;41.93
26112;BME280;13829;48.990;8.346;2023-04-22T12:13:18;99715.03;;;22.61;42.88
26112;BME280;13829;48.990;8.346;2023-04-22T12:15:46;99702.47;;;22.62;40.90
26112;BME280;13829;48.990;8.346;2023-04-22T12:18:13;99707.06;;;22.60;42.23
26112;BME280;13829;48.990;8.346;2023-04-22T12:20:42;99710.00;;;22.55;40.38
26112;BME280;13829;48.990;8.346;2023-04-22T12:23:15;99712.22;;;22.47;39.22
26112;BME280;13829;48.990;8.346;2023-04-22T12:25:42;99715.94;;;22.44;42.05
26112;BME280;13829;48.990;8.346;2023-04-22T12:28:10;99715.81;;;22.30;43.03
26112;BME280;13829;48.990;8.346;2023-04-22T12:30:38;99716.28;;;22.05;41.20
26112;BME280;13829;48.990;8.346;2023-04-22T12:33:04;99713.78;;;22.02;41.54
26112;BME280;13829;48.990;8.346;2023-04-22T12:35:32;99714.41;;;22.07;41.91
26112;BME280;13829;48.990;8.346;2023-04-22T12:38:00;99713.56;;;22.22;42.73
26112;BME280;13829;48.990;8.346;2023-04-22T12:40:27;99717.38;;;22.18;41.63
26112;BME280;13829;48.990;8.346;2023-04-22T12:42:54;99713.72;;;22.53;44.57
26112;BME280;13829;48.990;8.346;2023-04-22T12:45:21;99712.31;;;22.77;43.27
26112;BME280;13829;48.990;8.346;2023-04-22T12:47:50;99712.84;;;22.84;40.19
26112;BME280;13829;48.990;8.346;2023-04-22T12:50:19;99705.41;;;22.89;39.59
26112;BME280;13829;48.990;8.346;2023-04-22T12:52:46;99704.53;;;22.89;40.56
26112;BME280;13829;48.990;8.346;2023-04-22T12:55:14;99709.13;;;22.87;41.56
26112;BME280;13829;48.990;8.346;2023-04-22T12:57:44;99711.72;;;22.88;42.53
26112;BME280;13829;48.990;8.346;2023-04-22T13:00:12;99702.28;;;22.81;41.23
26112;BME280;13829;48.990;8.346;2023-04-22T13:02:41;99709.47;;;22.80;41.65
26112;BME280;13829;48.990;8.346;2023-04-22T13:05:09;99715.88;;;22.78;41.43